sensor_id;sensor_type;location;lat;lon;timestamp;P1;durP1;ratioP1;P2;durP2;ratioP2
14394;SDS011;7282;49.204;10.652;2023-06-05T00:00:31;3.67;;;2.73;;
14394;SDS011;7282;49.204;10.652;2023-06-05T00:02:58;3.30;;;3.00;;
14394;SDS011;7282;49.204;10.652;2023-06-05T00:05:25;4.60;;;3.07;;
14394;SDS011;7282;49.204;10.652;2023-06-05T00:07:53;3.23;;;2.73;;
14394;SDS011;7282;49.204;10.652;2023-06-05T00:10:20;3.90;;;3.00;;
14394;SDS011;7282;49.204;10.652;2023-06-05T00:12:47;3.50;;;2.67;;
14394;SDS011;7282;49.204;10.652;2023-06-05T00:15:13;3.40;;;2.73;;
14394;SDS011;7282;49.204;10.652;2023-06-05T00:17:40;3.40;;;2.97;;
14394;SDS011;7282;49.204;10.652;2023-06-05T00:20:08;3.37;;;2.93;;
14394;SDS011;7282;49.204;10.652;2023-06-05T00:22:37;3.50;;;2.40;;
14394;SDS011;7282;49.204;10.652;2023-06-05T00:25:05;3.23;;;2.67;;
14394;SDS011;7282;49.204;10.652;2023-06-05T00:27:32;3.27;;;2.67;;
14394;SDS011;7282;49.204;10.652;2023-06-05T00:29:58;3.37;;;2.47;;
14394;SDS011;7282;49.204;10.652;2023-06-05T00:32:25;3.17;;;2.40;;
14394;SDS011;7282;49.204;10.652;2023-06-05T00:34:52;3.63;;;2.60;;
14394;SDS011;7282;49.204;10.652;2023-06-05T00:37:19;3.17;;;2.67;;
14394;SDS011;7282;49.204;10.652;2023-06-05T00:39:46;3.00;;;2.70;;
14394;SDS011;7282;49.204;10.652;2023-06-05T00:42:13;3.17;;;2.70;;
14394;SDS011;7282;49.204;10.652;2023-06-05T00:44:39;2.63;;;2.43;;
14394;SDS011;7282;49.204;10.652;2023-06-05T00:47:06;3.17;;;2.83;;
14394;SDS011;7282;49.204;10.652;2023-06-05T00:49:33;3.73;;;2.67;;
14394;SDS011;7282;49.204;10.652;2023-06-05T00:52:00;3.70;;;2.80;;
14394;SDS011;7282;49.204;10.652;2023-06-05T00:54:27;3.30;;;3.00;;
14394;SDS011;7282;49.204;10.652;2023-06-05T00:56:54;3.90;;;2.77;;
14394;SDS011;7282;49.204;10.652;2023-06-05T00:59:21;2.90;;;2.70;;
14394;SDS011;7282;49.204;10.652;2023-06-05T01:01:48;3.77;;;2.93;;
14394;SDS011;7282;49.204;10.652;2023-06-05T01:04:14;4.83;;;2.90;;
14394;SDS011;7282;49.204;10.652;2023-06-05T01:06:41;4.87;;;2.70;;
14394;SDS011;7282;49.204;10.652;2023-06-05T01:09:09;3.40;;;2.83;;
14394;SDS011;7282;49.204;10.652;2023-06-05T01:14:23;2.70;;;2.50;;
14394;SDS011;7282;49.204;10.652;2023-06-05T01:16:55;3.10;;;2.80;;
14394;SDS011;7282;49.204;10.652;2023-06-05T01:19:22;2.87;;;2.60;;
14394;SDS011;7282;49.204;10.652;2023-06-05T01:21:54;3.60;;;2.83;;
14394;SDS011;7282;49.204;10.652;2023-06-05T01:24:24;2.80;;;2.50;;
14394;SDS011;7282;49.204;10.652;2023-06-05T01:27:05;3.07;;;2.67;;
14394;SDS011;7282;49.204;10.652;2023-06-05T01:29:26;3.37;;;3.07;;
14394;SDS011;7282;49.204;10.652;2023-06-05T01:31:53;3.17;;;2.43;;
14394;SDS011;7282;49.204;10.652;2023-06-05T01:34:20;2.70;;;2.50;;
14394;SDS011;7282;49.204;10.652;2023-06-05T01:36:47;3.10;;;2.60;;
14394;SDS011;7282;49.204;10.652;2023-06-05T01:39:15;3.50;;;2.50;;
14394;SDS011;7282;49.204;10.652;2023-06-05T01:41:44;4.80;;;3.00;;
14394;SDS011;7282;49.204;10.652;2023-06-05T01:44:13;3.10;;;2.73;;
14394;SDS011;7282;49.204;10.652;2023-06-05T01:46:41;3.50;;;2.70;;
14394;SDS011;7282;49.204;10.652;2023-06-05T01:49:08;4.03;;;2.60;;
14394;SDS011;7282;49.204;10.652;2023-06-05T01:51:36;2.80;;;2.57;;
14394;SDS011;7282;49.204;10.652;2023-06-05T01:54:03;3.30;;;2.73;;
14394;SDS011;7282;49.204;10.652;2023-06-05T01:56:31;3.80;;;2.40;;
14394;SDS011;7282;49.204;10.652;2023-06-05T01:59:01;3.40;;;2.93;;
14394;SDS011;7282;49.204;10.652;2023-06-05T02:01:30;2.40;;;2.20;;
14394;SDS011;7282;49.204;10.652;2023-06-05T02:03:57;2.80;;;2.30;;
14394;SDS011;7282;49.204;10.652;2023-06-05T02:06:23;3.27;;;2.67;;
14394;SDS011;7282;49.204;10.652;2023-06-05T02:08:51;3.30;;;2.83;;
14394;SDS011;7282;49.204;10.652;2023-06-05T02:11:17;3.23;;;2.80;;
14394;SDS011;7282;49.204;10.652;2023-06-05T02:13:44;2.60;;;2.40;;
14394;SDS011;7282;49.204;10.652;2023-06-05T02:16:13;3.03;;;2.53;;
14394;SDS011;7282;49.204;10.652;2023-06-05T02:18:40;3.67;;;2.50;;
14394;SDS011;7282;49.204;10.652;2023-06-05T02:21:07;2.50;;;2.30;;
14394;SDS011;7282;49.204;10.652;2023-06-05T02:23:33;2.93;;;2.40;;
14394;SDS011;7282;49.204;10.652;2023-06-05T02:26:00;3.33;;;2.67;;
14394;SDS011;7282;49.204;10.652;2023-06-05T02:28:27;2.60;;;2.40;;
14394;SDS011;7282;49.204;10.652;2023-06-05T02:30:54;3.07;;;2.73;;
14394;SDS011;7282;49.204;10.652;2023-06-05T02:33:21;3.47;;;2.70;;
14394;SDS011;7282;49.204;10.652;2023-06-05T02:35:47;3.87;;;2.90;;
14394;SDS011;7282;49.204;10.652;2023-06-05T02:38:14;3.37;;;2.90;;
14394;SDS011;7282;49.204;10.652;2023-06-05T02:40:43;3.20;;;2.90;;
14394;SDS011;7282;49.204;10.652;2023-06-05T02:43:10;3.10;;;2.70;;
14394;SDS011;7282;49.204;10.652;2023-06-05T02:45:37;3.30;;;2.60;;
14394;SDS011;7282;49.204;10.652;2023-06-05T02:48:04;2.60;;;2.40;;
14394;SDS011;7282;49.204;10.652;2023-06-05T02:50:30;4.73;;;2.87;;
14394;SDS011;7282;49.204;10.652;2023-06-05T02:52:57;3.00;;;2.60;;
14394;SDS011;7282;49.204;10.652;2023-06-05T02:55:24;3.03;;;2.70;;
14394;SDS011;7282;49.204;10.652;2023-06-05T02:57:52;2.53;;;2.33;;
14394;SDS011;7282;49.204;10.652;2023-06-05T03:00:19;4.07;;;2.40;;
14394;SDS011;7282;49.204;10.652;2023-06-05T03:02:46;3.40;;;2.70;;
14394;SDS011;7282;49.204;10.652;2023-06-05T03:05:14;3.30;;;2.27;;
14394;SDS011;7282;49.204;10.652;2023-06-05T03:07:41;3.43;;;2.83;;
14394;SDS011;7282;49.204;10.652;2023-06-05T03:10:08;3.43;;;2.87;;
14394;SDS011;7282;49.204;10.652;2023-06-05T03:12:35;3.07;;;2.77;;
14394;SDS011;7282;49.204;10.652;2023-06-05T03:15:02;3.10;;;2.90;;
14394;SDS011;7282;49.204;10.652;2023-06-05T03:17:29;3.97;;;3.03;;
14394;SDS011;7282;49.204;10.652;2023-06-05T03:19:56;5.50;;;3.33;;
14394;SDS011;7282;49.204;10.652;2023-06-05T03:22:23;3.90;;;2.83;;
14394;SDS011;7282;49.204;10.652;2023-06-05T03:24:50;3.43;;;3.13;;
14394;SDS011;7282;49.204;10.652;2023-06-05T03:27:17;3.43;;;2.87;;
14394;SDS011;7282;49.204;10.652;2023-06-05T03:29:44;3.23;;;2.93;;
14394;SDS011;7282;49.204;10.652;2023-06-05T03:32:11;6.80;;;2.83;;
14394;SDS011;7282;49.204;10.652;2023-06-05T03:34:37;4.37;;;2.90;;
14394;SDS011;7282;49.204;10.652;2023-06-05T03:37:06;3.77;;;2.93;;
14394;SDS011;7282;49.204;10.652;2023-06-05T03:39:32;3.80;;;2.83;;
14394;SDS011;7282;49.204;10.652;2023-06-05T03:41:59;5.13;;;3.03;;
14394;SDS011;7282;49.204;10.652;2023-06-05T03:44:27;3.33;;;2.80;;
14394;SDS011;7282;49.204;10.652;2023-06-05T03:46:53;4.87;;;2.60;;
14394;SDS011;7282;49.204;10.652;2023-06-05T03:49:20;4.77;;;3.10;;
14394;SDS011;7282;49.204;10.652;2023-06-05T03:51:48;3.07;;;2.83;;
14394;SDS011;7282;49.204;10.652;2023-06-05T03:54:15;3.70;;;2.90;;
14394;SDS011;7282;49.204;10.652;2023-06-05T03:56:43;3.43;;;3.13;;
14394;SDS011;7282;49.204;10.652;2023-06-05T03:59:11;3.67;;;3.03;;
14394;SDS011;7282;49.204;10.652;2023-06-05T04:01:48;4.20;;;3.20;;
14394;SDS011;7282;49.204;10.652;2023-06-05T04:04:15;3.90;;;3.00;;
14394;SDS011;7282;49.204;10.652;2023-06-05T04:06:42;8.93;;;4.03;;
14394;SDS011;7282;49.204;10.652;2023-06-05T04:09:09;4.03;;;3.00;;
14394;SDS011;7282;49.204;10.652;2023-06-05T04:11:42;3.13;;;2.83;;
14394;SDS011;7282;49.204;10.652;2023-06-05T04:14:09;4.77;;;2.90;;
14394;SDS011;7282;49.204;10.652;2023-06-05T04:16:37;3.83;;;2.90;;
14394;SDS011;7282;49.204;10.652;2023-06-05T04:19:05;4.30;;;3.77;;
14394;SDS011;7282;49.204;10.652;2023-06-05T04:21:36;4.43;;;3.03;;
14394;SDS011;7282;49.204;10.652;2023-06-05T04:24:04;3.80;;;2.77;;
14394;SDS011;7282;49.204;10.652;2023-06-05T04:26:33;4.17;;;3.00;;
14394;SDS011;7282;49.204;10.652;2023-06-05T04:29:00;4.73;;;2.50;;
14394;SDS011;7282;49.204;10.652;2023-06-05T04:31:31;3.00;;;2.40;;
14394;SDS011;7282;49.204;10.652;2023-06-05T04:33:58;2.80;;;2.50;;
14394;SDS011;7282;49.204;10.652;2023-06-05T04:36:27;3.37;;;2.70;;
14394;SDS011;7282;49.204;10.652;2023-06-05T04:38:54;4.77;;;2.60;;
14394;SDS011;7282;49.204;10.652;2023-06-05T04:41:22;5.13;;;3.03;;
14394;SDS011;7282;49.204;10.652;2023-06-05T04:43:48;5.53;;;3.13;;
14394;SDS011;7282;49.204;10.652;2023-06-05T04:46:15;3.30;;;3.00;;
14394;SDS011;7282;49.204;10.652;2023-06-05T04:48:42;4.90;;;2.40;;
14394;SDS011;7282;49.204;10.652;2023-06-05T04:51:08;2.13;;;1.93;;
14394;SDS011;7282;49.204;10.652;2023-06-05T04:53:35;4.50;;;2.80;;
14394;SDS011;7282;49.204;10.652;2023-06-05T04:56:02;3.23;;;2.40;;
14394;SDS011;7282;49.204;10.652;2023-06-05T04:58:29;3.93;;;2.73;;
14394;SDS011;7282;49.204;10.652;2023-06-05T05:00:56;3.00;;;2.70;;
14394;SDS011;7282;49.204;10.652;2023-06-05T05:03:25;2.80;;;2.60;;
14394;SDS011;7282;49.204;10.652;2023-06-05T05:05:53;2.70;;;2.50;;
14394;SDS011;7282;49.204;10.652;2023-06-05T05:08:20;4.00;;;2.70;;
14394;SDS011;7282;49.204;10.652;2023-06-05T05:10:47;3.03;;;2.40;;
14394;SDS011;7282;49.204;10.652;2023-06-05T05:13:14;2.60;;;2.40;;
14394;SDS011;7282;49.204;10.652;2023-06-05T05:15:41;2.87;;;2.43;;
14394;SDS011;7282;49.204;10.652;2023-06-05T05:18:07;2.90;;;2.60;;
14394;SDS011;7282;49.204;10.652;2023-06-05T05:20:34;2.77;;;2.57;;
14394;SDS011;7282;49.204;10.652;2023-06-05T05:23:01;3.50;;;2.73;;
14394;SDS011;7282;49.204;10.652;2023-06-05T05:25:28;3.33;;;2.57;;
14394;SDS011;7282;49.204;10.652;2023-06-05T05:27:54;2.50;;;2.30;;
14394;SDS011;7282;49.204;10.652;2023-06-05T05:30:21;3.23;;;2.80;;
14394;SDS011;7282;49.204;10.652;2023-06-05T05:32:48;3.50;;;2.80;;
14394;SDS011;7282;49.204;10.652;2023-06-05T05:35:14;3.27;;;2.70;;
14394;SDS011;7282;49.204;10.652;2023-06-05T05:37:41;3.60;;;2.60;;
14394;SDS011;7282;49.204;10.652;2023-06-05T05:40:08;4.97;;;2.70;;
14394;SDS011;7282;49.204;10.652;2023-06-05T05:42:36;3.33;;;2.63;;
14394;SDS011;7282;49.204;10.652;2023-06-05T05:45:03;3.50;;;2.60;;
14394;SDS011;7282;49.204;10.652;2023-06-05T05:47:30;3.97;;;2.63;;
14394;SDS011;7282;49.204;10.652;2023-06-05T05:49:57;3.33;;;2.53;;
14394;SDS011;7282;49.204;10.652;2023-06-05T05:52:23;3.37;;;3.07;;
14394;SDS011;7282;49.204;10.652;2023-06-05T05:54:50;4.73;;;2.70;;
14394;SDS011;7282;49.204;10.652;2023-06-05T05:57:18;3.73;;;2.97;;
14394;SDS011;7282;49.204;10.652;2023-06-05T05:59:44;3.77;;;2.70;;
14394;SDS011;7282;49.204;10.652;2023-06-05T06:02:11;5.20;;;2.73;;
14394;SDS011;7282;49.204;10.652;2023-06-05T06:04:38;4.13;;;2.90;;
14394;SDS011;7282;49.204;10.652;2023-06-05T06:07:05;3.30;;;2.53;;
14394;SDS011;7282;49.204;10.652;2023-06-05T06:09:32;2.93;;;2.63;;
14394;SDS011;7282;49.204;10.652;2023-06-05T06:11:59;5.27;;;2.83;;
14394;SDS011;7282;49.204;10.652;2023-06-05T06:14:27;2.57;;;2.37;;
14394;SDS011;7282;49.204;10.652;2023-06-05T06:16:54;3.50;;;2.93;;
14394;SDS011;7282;49.204;10.652;2023-06-05T06:19:23;4.60;;;2.93;;
14394;SDS011;7282;49.204;10.652;2023-06-05T06:21:50;3.40;;;3.10;;
14394;SDS011;7282;49.204;10.652;2023-06-05T06:24:19;3.57;;;2.60;;
14394;SDS011;7282;49.204;10.652;2023-06-05T06:26:47;3.40;;;3.10;;
14394;SDS011;7282;49.204;10.652;2023-06-05T06:29:14;6.37;;;3.40;;
14394;SDS011;7282;49.204;10.652;2023-06-05T06:31:42;3.43;;;3.13;;
14394;SDS011;7282;49.204;10.652;2023-06-05T06:34:08;3.80;;;3.37;;
14394;SDS011;7282;49.204;10.652;2023-06-05T06:36:39;4.23;;;3.27;;
14394;SDS011;7282;49.204;10.652;2023-06-05T06:39:06;5.07;;;3.63;;
14394;SDS011;7282;49.204;10.652;2023-06-05T06:41:35;3.50;;;3.13;;
14394;SDS011;7282;49.204;10.652;2023-06-05T06:44:01;3.80;;;3.40;;
14394;SDS011;7282;49.204;10.652;2023-06-05T06:46:29;4.63;;;3.50;;
14394;SDS011;7282;49.204;10.652;2023-06-05T06:48:56;3.97;;;3.53;;
14394;SDS011;7282;49.204;10.652;2023-06-05T06:51:23;5.13;;;3.70;;
14394;SDS011;7282;49.204;10.652;2023-06-05T06:53:50;5.50;;;3.80;;
14394;SDS011;7282;49.204;10.652;2023-06-05T06:56:17;5.40;;;4.13;;
14394;SDS011;7282;49.204;10.652;2023-06-05T06:58:45;5.13;;;3.60;;
14394;SDS011;7282;49.204;10.652;2023-06-05T07:01:13;5.17;;;4.10;;
14394;SDS011;7282;49.204;10.652;2023-06-05T07:03:40;5.37;;;4.20;;
14394;SDS011;7282;49.204;10.652;2023-06-05T07:06:09;5.20;;;4.20;;
14394;SDS011;7282;49.204;10.652;2023-06-05T07:08:37;5.37;;;4.27;;
14394;SDS011;7282;49.204;10.652;2023-06-05T07:11:04;5.23;;;3.80;;
14394;SDS011;7282;49.204;10.652;2023-06-05T07:13:30;4.73;;;4.27;;
14394;SDS011;7282;49.204;10.652;2023-06-05T07:15:57;4.57;;;4.17;;
14394;SDS011;7282;49.204;10.652;2023-06-05T07:18:24;5.17;;;4.30;;
14394;SDS011;7282;49.204;10.652;2023-06-05T07:20:52;4.60;;;4.20;;
14394;SDS011;7282;49.204;10.652;2023-06-05T07:23:18;7.83;;;4.53;;
14394;SDS011;7282;49.204;10.652;2023-06-05T07:25:45;4.43;;;4.03;;
14394;SDS011;7282;49.204;10.652;2023-06-05T07:28:12;5.83;;;4.40;;
14394;SDS011;7282;49.204;10.652;2023-06-05T07:30:39;6.97;;;5.10;;
14394;SDS011;7282;49.204;10.652;2023-06-05T07:33:08;6.30;;;4.50;;
14394;SDS011;7282;49.204;10.652;2023-06-05T07:35:35;5.97;;;4.43;;
14394;SDS011;7282;49.204;10.652;2023-06-05T07:38:02;5.53;;;4.30;;
14394;SDS011;7282;49.204;10.652;2023-06-05T07:40:29;4.83;;;4.40;;
14394;SDS011;7282;49.204;10.652;2023-06-05T07:42:56;14.70;;;13.40;;
14394;SDS011;7282;49.204;10.652;2023-06-05T07:45:22;7.37;;;5.03;;
14394;SDS011;7282;49.204;10.652;2023-06-05T07:47:49;5.23;;;4.73;;
14394;SDS011;7282;49.204;10.652;2023-06-05T07:50:16;6.60;;;5.30;;
14394;SDS011;7282;49.204;10.652;2023-06-05T07:52:43;4.93;;;4.50;;
14394;SDS011;7282;49.204;10.652;2023-06-05T07:55:09;5.50;;;4.50;;
14394;SDS011;7282;49.204;10.652;2023-06-05T07:57:36;9.67;;;5.07;;
14394;SDS011;7282;49.204;10.652;2023-06-05T08:00:03;7.33;;;4.50;;
14394;SDS011;7282;49.204;10.652;2023-06-05T08:02:32;6.57;;;4.70;;
14394;SDS011;7282;49.204;10.652;2023-06-05T08:04:58;6.30;;;4.67;;
14394;SDS011;7282;49.204;10.652;2023-06-05T08:07:25;6.23;;;4.43;;
14394;SDS011;7282;49.204;10.652;2023-06-05T08:09:52;6.43;;;4.63;;
14394;SDS011;7282;49.204;10.652;2023-06-05T08:12:18;10.90;;;4.97;;
14394;SDS011;7282;49.204;10.652;2023-06-05T08:14:45;5.83;;;4.57;;
14394;SDS011;7282;49.204;10.652;2023-06-05T08:17:12;5.13;;;4.13;;
14394;SDS011;7282;49.204;10.652;2023-06-05T08:19:38;5.90;;;4.93;;
14394;SDS011;7282;49.204;10.652;2023-06-05T08:22:05;5.30;;;4.80;;
14394;SDS011;7282;49.204;10.652;2023-06-05T08:24:32;6.30;;;4.50;;
14394;SDS011;7282;49.204;10.652;2023-06-05T08:26:59;7.60;;;5.00;;
14394;SDS011;7282;49.204;10.652;2023-06-05T08:29:27;6.07;;;4.90;;
14394;SDS011;7282;49.204;10.652;2023-06-05T08:31:54;5.33;;;4.43;;
14394;SDS011;7282;49.204;10.652;2023-06-05T08:34:21;5.00;;;4.50;;
14394;SDS011;7282;49.204;10.652;2023-06-05T08:36:48;7.90;;;5.03;;
14394;SDS011;7282;49.204;10.652;2023-06-05T08:39:15;6.10;;;5.10;;
14394;SDS011;7282;49.204;10.652;2023-06-05T08:41:42;7.13;;;5.03;;
14394;SDS011;7282;49.204;10.652;2023-06-05T08:44:12;6.60;;;4.60;;
14394;SDS011;7282;49.204;10.652;2023-06-05T08:46:39;8.57;;;4.87;;
14394;SDS011;7282;49.204;10.652;2023-06-05T08:49:08;6.40;;;4.87;;
14394;SDS011;7282;49.204;10.652;2023-06-05T08:51:35;5.00;;;4.50;;
14394;SDS011;7282;49.204;10.652;2023-06-05T08:54:04;5.27;;;4.50;;
14394;SDS011;7282;49.204;10.652;2023-06-05T08:56:33;6.43;;;4.97;;
14394;SDS011;7282;49.204;10.652;2023-06-05T08:59:03;9.20;;;5.70;;
14394;SDS011;7282;49.204;10.652;2023-06-05T09:01:30;6.00;;;4.40;;
14394;SDS011;7282;49.204;10.652;2023-06-05T09:03:58;7.07;;;4.50;;
14394;SDS011;7282;49.204;10.652;2023-06-05T09:06:25;6.03;;;4.70;;
14394;SDS011;7282;49.204;10.652;2023-06-05T09:08:51;5.40;;;4.90;;
14394;SDS011;7282;49.204;10.652;2023-06-05T09:11:21;9.20;;;4.83;;
14394;SDS011;7282;49.204;10.652;2023-06-05T09:13:48;5.03;;;4.53;;
14394;SDS011;7282;49.204;10.652;2023-06-05T09:16:19;5.40;;;4.90;;
14394;SDS011;7282;49.204;10.652;2023-06-05T09:18:54;5.23;;;4.37;;
14394;SDS011;7282;49.204;10.652;2023-06-05T09:21:21;5.20;;;4.70;;
14394;SDS011;7282;49.204;10.652;2023-06-05T09:23:50;5.40;;;4.73;;
14394;SDS011;7282;49.204;10.652;2023-06-05T09:26:17;4.93;;;4.53;;
14394;SDS011;7282;49.204;10.652;2023-06-05T09:28:53;5.40;;;4.87;;
14394;SDS011;7282;49.204;10.652;2023-06-05T09:31:22;6.00;;;4.37;;
14394;SDS011;7282;49.204;10.652;2023-06-05T09:33:55;6.30;;;4.73;;
14394;SDS011;7282;49.204;10.652;2023-06-05T09:36:23;5.00;;;4.30;;
14394;SDS011;7282;49.204;10.652;2023-06-05T09:38:52;7.63;;;5.37;;
14394;SDS011;7282;49.204;10.652;2023-06-05T09:41:18;5.80;;;4.50;;
14394;SDS011;7282;49.204;10.652;2023-06-05T09:43:45;4.97;;;4.47;;
14394;SDS011;7282;49.204;10.652;2023-06-05T09:46:14;6.33;;;4.60;;
14394;SDS011;7282;49.204;10.652;2023-06-05T09:48:41;4.80;;;4.40;;
14394;SDS011;7282;49.204;10.652;2023-06-05T09:51:10;5.90;;;5.13;;
14394;SDS011;7282;49.204;10.652;2023-06-05T09:53:40;5.63;;;4.80;;
14394;SDS011;7282;49.204;10.652;2023-06-05T09:56:06;5.20;;;4.67;;
14394;SDS011;7282;49.204;10.652;2023-06-05T09:58:35;5.43;;;4.73;;
14394;SDS011;7282;49.204;10.652;2023-06-05T10:01:04;7.00;;;4.90;;
14394;SDS011;7282;49.204;10.652;2023-06-05T10:03:33;6.17;;;4.60;;
14394;SDS011;7282;49.204;10.652;2023-06-05T10:06:02;5.07;;;4.57;;
14394;SDS011;7282;49.204;10.652;2023-06-05T10:08:29;4.97;;;4.10;;
14394;SDS011;7282;49.204;10.652;2023-06-05T10:10:57;7.03;;;4.50;;
14394;SDS011;7282;49.204;10.652;2023-06-05T10:13:23;4.87;;;4.37;;
14394;SDS011;7282;49.204;10.652;2023-06-05T10:15:50;4.83;;;4.33;;
14394;SDS011;7282;49.204;10.652;2023-06-05T10:18:18;5.87;;;4.90;;
14394;SDS011;7282;49.204;10.652;2023-06-05T10:20:46;5.63;;;4.90;;
14394;SDS011;7282;49.204;10.652;2023-06-05T10:23:14;5.67;;;4.90;;
14394;SDS011;7282;49.204;10.652;2023-06-05T10:25:41;5.77;;;4.33;;
14394;SDS011;7282;49.204;10.652;2023-06-05T10:28:26;4.87;;;4.40;;
14394;SDS011;7282;49.204;10.652;2023-06-05T10:33:31;6.67;;;6.03;;
14394;SDS011;7282;49.204;10.652;2023-06-05T10:38:25;4.80;;;4.40;;
14394;SDS011;7282;49.204;10.652;2023-06-05T10:40:53;5.00;;;4.47;;
14394;SDS011;7282;49.204;10.652;2023-06-05T10:43:23;5.73;;;4.83;;
14394;SDS011;7282;49.204;10.652;2023-06-05T10:45:51;6.47;;;4.47;;
14394;SDS011;7282;49.204;10.652;2023-06-05T10:48:18;5.83;;;4.90;;
14394;SDS011;7282;49.204;10.652;2023-06-05T10:50:45;8.43;;;5.13;;
14394;SDS011;7282;49.204;10.652;2023-06-05T10:55:57;5.63;;;5.07;;
14394;SDS011;7282;49.204;10.652;2023-06-05T10:58:24;7.53;;;4.87;;
14394;SDS011;7282;49.204;10.652;2023-06-05T11:03:55;5.50;;;4.50;;
14394;SDS011;7282;49.204;10.652;2023-06-05T11:06:11;7.13;;;4.77;;
14394;SDS011;7282;49.204;10.652;2023-06-05T11:08:39;6.53;;;4.80;;
14394;SDS011;7282;49.204;10.652;2023-06-05T11:11:07;9.27;;;8.37;;
14394;SDS011;7282;49.204;10.652;2023-06-05T11:13:54;6.27;;;5.07;;
14394;SDS011;7282;49.204;10.652;2023-06-05T11:16:27;5.90;;;5.20;;
14394;SDS011;7282;49.204;10.652;2023-06-05T11:18:54;6.27;;;5.20;;
14394;SDS011;7282;49.204;10.652;2023-06-05T11:21:23;6.13;;;4.77;;
14394;SDS011;7282;49.204;10.652;2023-06-05T11:26:40;5.90;;;5.30;;
14394;SDS011;7282;49.204;10.652;2023-06-05T11:29:12;6.93;;;5.13;;
14394;SDS011;7282;49.204;10.652;2023-06-05T11:31:39;6.60;;;5.03;;
14394;SDS011;7282;49.204;10.652;2023-06-05T11:34:15;5.50;;;5.00;;
14394;SDS011;7282;49.204;10.652;2023-06-05T11:36:34;4.93;;;4.53;;
14394;SDS011;7282;49.204;10.652;2023-06-05T11:39:01;13.20;;;5.70;;
14394;SDS011;7282;49.204;10.652;2023-06-05T11:41:28;5.23;;;4.57;;
14394;SDS011;7282;49.204;10.652;2023-06-05T11:43:55;6.10;;;5.37;;
14394;SDS011;7282;49.204;10.652;2023-06-05T11:46:36;6.87;;;5.00;;
14394;SDS011;7282;49.204;10.652;2023-06-05T11:49:04;5.30;;;4.70;;
14394;SDS011;7282;49.204;10.652;2023-06-05T11:51:34;6.37;;;4.70;;
14394;SDS011;7282;49.204;10.652;2023-06-05T11:54:01;6.73;;;5.00;;
14394;SDS011;7282;49.204;10.652;2023-06-05T11:56:27;5.87;;;5.37;;
14394;SDS011;7282;49.204;10.652;2023-06-05T11:58:55;5.77;;;5.20;;
14394;SDS011;7282;49.204;10.652;2023-06-05T12:01:22;5.80;;;5.20;;
14394;SDS011;7282;49.204;10.652;2023-06-05T12:04:04;7.37;;;5.20;;
14394;SDS011;7282;49.204;10.652;2023-06-05T12:06:31;5.60;;;5.10;;
14394;SDS011;7282;49.204;10.652;2023-06-05T12:09:08;5.90;;;5.03;;
14394;SDS011;7282;49.204;10.652;2023-06-05T12:11:38;5.93;;;4.80;;
14394;SDS011;7282;49.204;10.652;2023-06-05T12:14:05;5.33;;;4.60;;
14394;SDS011;7282;49.204;10.652;2023-06-05T12:16:35;5.60;;;4.93;;
14394;SDS011;7282;49.204;10.652;2023-06-05T12:19:10;6.33;;;4.57;;
14394;SDS011;7282;49.204;10.652;2023-06-05T12:21:31;6.30;;;4.63;;
14394;SDS011;7282;49.204;10.652;2023-06-05T12:24:01;7.77;;;5.13;;
14394;SDS011;7282;49.204;10.652;2023-06-05T12:26:28;5.40;;;4.90;;
14394;SDS011;7282;49.204;10.652;2023-06-05T12:29:04;5.23;;;4.73;;
14394;SDS011;7282;49.204;10.652;2023-06-05T12:31:35;5.30;;;4.47;;
14394;SDS011;7282;49.204;10.652;2023-06-05T12:34:02;6.93;;;4.97;;
14394;SDS011;7282;49.204;10.652;2023-06-05T12:36:30;5.23;;;4.73;;
14394;SDS011;7282;49.204;10.652;2023-06-05T12:39:01;5.43;;;4.50;;
14394;SDS011;7282;49.204;10.652;2023-06-05T12:41:26;5.47;;;4.57;;
14394;SDS011;7282;49.204;10.652;2023-06-05T12:43:59;5.57;;;4.83;;
14394;SDS011;7282;49.204;10.652;2023-06-05T12:46:26;5.47;;;4.37;;
14394;SDS011;7282;49.204;10.652;2023-06-05T12:48:54;5.60;;;4.47;;
14394;SDS011;7282;49.204;10.652;2023-06-05T12:51:21;5.37;;;4.70;;
14394;SDS011;7282;49.204;10.652;2023-06-05T12:53:48;4.83;;;4.27;;
14394;SDS011;7282;49.204;10.652;2023-06-05T12:56:14;5.10;;;4.60;;
14394;SDS011;7282;49.204;10.652;2023-06-05T12:58:42;5.10;;;4.30;;
14394;SDS011;7282;49.204;10.652;2023-06-05T13:01:08;4.53;;;4.13;;
14394;SDS011;7282;49.204;10.652;2023-06-05T13:03:35;5.50;;;4.60;;
14394;SDS011;7282;49.204;10.652;2023-06-05T13:06:02;6.23;;;4.10;;
14394;SDS011;7282;49.204;10.652;2023-06-05T13:08:29;5.77;;;4.40;;
14394;SDS011;7282;49.204;10.652;2023-06-05T13:10:56;7.13;;;4.60;;
14394;SDS011;7282;49.204;10.652;2023-06-05T13:13:23;6.03;;;4.20;;
14394;SDS011;7282;49.204;10.652;2023-06-05T13:15:49;4.23;;;3.83;;
14394;SDS011;7282;49.204;10.652;2023-06-05T13:18:16;4.20;;;3.80;;
14394;SDS011;7282;49.204;10.652;2023-06-05T13:20:43;4.70;;;4.20;;
14394;SDS011;7282;49.204;10.652;2023-06-05T13:23:10;4.60;;;4.20;;
14394;SDS011;7282;49.204;10.652;2023-06-05T13:25:37;5.40;;;3.90;;
14394;SDS011;7282;49.204;10.652;2023-06-05T13:28:05;4.50;;;4.10;;
14394;SDS011;7282;49.204;10.652;2023-06-05T13:30:34;4.17;;;3.77;;
14394;SDS011;7282;49.204;10.652;2023-06-05T13:33:01;5.43;;;4.00;;
14394;SDS011;7282;49.204;10.652;2023-06-05T13:35:28;4.87;;;4.03;;
14394;SDS011;7282;49.204;10.652;2023-06-05T13:37:54;4.60;;;4.20;;
14394;SDS011;7282;49.204;10.652;2023-06-05T13:40:21;5.83;;;4.00;;
14394;SDS011;7282;49.204;10.652;2023-06-05T13:42:48;4.60;;;4.20;;
14394;SDS011;7282;49.204;10.652;2023-06-05T13:45:17;4.77;;;4.37;;
14394;SDS011;7282;49.204;10.652;2023-06-05T13:47:44;4.00;;;3.70;;
14394;SDS011;7282;49.204;10.652;2023-06-05T13:50:11;3.93;;;3.57;;
14394;SDS011;7282;49.204;10.652;2023-06-05T13:52:37;3.60;;;3.33;;
14394;SDS011;7282;49.204;10.652;2023-06-05T13:55:04;4.03;;;3.73;;
14394;SDS011;7282;49.204;10.652;2023-06-05T13:57:31;3.80;;;3.40;;
14394;SDS011;7282;49.204;10.652;2023-06-05T13:59:58;7.23;;;3.80;;
14394;SDS011;7282;49.204;10.652;2023-06-05T14:02:25;3.90;;;3.50;;
14394;SDS011;7282;49.204;10.652;2023-06-05T14:04:52;3.50;;;3.20;;
14394;SDS011;7282;49.204;10.652;2023-06-05T14:07:18;3.70;;;3.30;;
14394;SDS011;7282;49.204;10.652;2023-06-05T14:09:45;4.40;;;3.23;;
14394;SDS011;7282;49.204;10.652;2023-06-05T14:12:13;3.70;;;3.40;;
14394;SDS011;7282;49.204;10.652;2023-06-05T14:14:40;3.40;;;3.10;;
14394;SDS011;7282;49.204;10.652;2023-06-05T14:17:07;4.27;;;3.23;;
14394;SDS011;7282;49.204;10.652;2023-06-05T14:19:33;3.37;;;3.07;;
14394;SDS011;7282;49.204;10.652;2023-06-05T14:22:00;3.40;;;3.10;;
14394;SDS011;7282;49.204;10.652;2023-06-05T14:24:27;3.57;;;3.27;;
14394;SDS011;7282;49.204;10.652;2023-06-05T14:26:54;5.70;;;3.93;;
14394;SDS011;7282;49.204;10.652;2023-06-05T14:29:22;4.43;;;3.50;;
14394;SDS011;7282;49.204;10.652;2023-06-05T14:31:49;3.70;;;3.40;;
14394;SDS011;7282;49.204;10.652;2023-06-05T14:34:15;3.50;;;3.20;;
14394;SDS011;7282;49.204;10.652;2023-06-05T14:36:42;3.80;;;3.40;;
14394;SDS011;7282;49.204;10.652;2023-06-05T14:39:11;3.13;;;2.83;;
14394;SDS011;7282;49.204;10.652;2023-06-05T14:41:37;3.43;;;3.03;;
14394;SDS011;7282;49.204;10.652;2023-06-05T14:44:04;3.50;;;3.20;;
14394;SDS011;7282;49.204;10.652;2023-06-05T14:46:31;4.30;;;3.23;;
14394;SDS011;7282;49.204;10.652;2023-06-05T14:48:58;5.90;;;3.00;;
14394;SDS011;7282;49.204;10.652;2023-06-05T14:51:24;4.60;;;2.93;;
14394;SDS011;7282;49.204;10.652;2023-06-05T14:53:51;4.43;;;3.30;;
14394;SDS011;7282;49.204;10.652;2023-06-05T14:56:18;5.53;;;3.10;;
14394;SDS011;7282;49.204;10.652;2023-06-05T14:58:45;5.40;;;3.40;;
14394;SDS011;7282;49.204;10.652;2023-06-05T15:01:11;3.63;;;2.97;;
14394;SDS011;7282;49.204;10.652;2023-06-05T15:03:40;4.10;;;3.40;;
14394;SDS011;7282;49.204;10.652;2023-06-05T15:06:07;4.77;;;3.17;;